Time;durP1;ratioP1;P1;durP2;ratioP2;P2;SDS_P1;SDS_P2;PMS_P1;PMS_P2;Temp;Humidity;BMP_temperature;BMP_pressure;BME280_temperature;BME280_humidity;BME280_pressure;Samples;Min_cycle;Max_cycle;Signal;HPM_P1;HPM_P2
2021/03/08 00:00:17;;;;;;;3.50;1.60;;;17.40;48.60;;;;;;4994718;28;20037;-64
2021/03/08 00:02:42;;;;;;;2.50;1.63;;;17.60;48.20;;;;;;4993698;28;20042;-64
2021/03/08 00:05:08;;;;;;;2.05;1.75;;;17.70;48.00;;;;;;4995467;28;20507;-65
2021/03/08 00:07:34;;;;;;;3.55;1.48;;;17.90;47.80;;;;;;4995110;28;20035;-65
2021/03/08 00:09:59;;;;;;;2.25;1.20;;;17.90;47.60;;;;;;4995758;28;20037;-65
2021/03/08 00:12:25;;;;;;;1.63;1.52;;;18.00;47.50;;;;;;4995388;28;20465;-65
2021/03/08 00:14:50;;;;;;;2.45;1.25;;;18.10;47.40;;;;;;4988062;28;20103;-65
2021/03/08 00:17:16;;;;;;;3.35;1.80;;;18.20;47.30;;;;;;4989751;28;20027;-65
2021/03/08 00:19:42;;;;;;;2.20;1.50;;;18.30;47.20;;;;;;4996301;28;20085;-65
2021/03/08 00:22:07;;;;;;;3.13;1.50;;;18.40;47.20;;;;;;4995909;28;20030;-65
2021/03/08 00:24:33;;;;;;;3.95;1.45;;;18.40;47.10;;;;;;5012320;28;20026;-65
2021/03/08 00:26:58;;;;;;;3.00;1.27;;;18.40;47.00;;;;;;5007620;28;20582;-65
2021/03/08 00:29:25;;;;;;;1.92;1.20;;;18.50;47.10;;;;;;4991796;28;20041;-65
2021/03/08 00:31:50;;;;;;;2.33;1.45;;;18.50;47.10;;;;;;4998312;28;20115;-64
2021/03/08 00:34:16;;;;;;;1.83;1.20;;;18.50;47.10;;;;;;4992264;28;20050;-65
2021/03/08 00:36:41;;;;;;;2.70;1.30;;;18.50;47.10;;;;;;4991932;28;20035;-65
2021/03/08 00:39:07;;;;;;;3.42;1.42;;;18.40;47.10;;;;;;4992096;28;20633;-65
2021/03/08 00:41:33;;;;;;;1.27;1.10;;;18.50;47.20;;;;;;4998212;28;20497;-65
2021/03/08 00:43:58;;;;;;;3.50;1.30;;;18.40;47.10;;;;;;4993234;28;20022;-65
2021/03/08 00:46:24;;;;;;;4.05;1.50;;;18.40;47.20;;;;;;4983871;28;20464;-65
2021/03/08 00:48:49;;;;;;;1.73;1.10;;;18.40;47.20;;;;;;4982803;28;20116;-65
2021/03/08 00:51:15;;;;;;;2.53;1.00;;;18.40;47.20;;;;;;4984204;28;20042;-64
2021/03/08 00:53:40;;;;;;;3.03;1.48;;;18.30;47.20;;;;;;4985003;28;20039;-65
2021/03/08 00:56:06;;;;;;;2.10;1.20;;;18.30;47.20;;;;;;4993126;28;20496;-64
2021/03/08 00:58:31;;;;;;;2.65;1.38;;;18.30;47.20;;;;;;4986084;28;20048;-65
2021/03/08 01:00:57;;;;;;;2.20;1.20;;;18.20;47.20;;;;;;4991617;28;20066;-65
2021/03/08 01:03:23;;;;;;;1.73;1.20;;;18.20;47.10;;;;;;4992320;28;20073;-65
2021/03/08 01:05:48;;;;;;;1.27;1.00;;;18.20;47.10;;;;;;4996265;28;20092;-65
2021/03/08 01:08:13;;;;;;;2.05;1.23;;;18.20;47.00;;;;;;4999816;28;20038;-64
2021/03/08 01:10:39;;;;;;;1.95;1.20;;;18.20;47.00;;;;;;4998801;28;20033;-66
2021/03/08 01:13:04;;;;;;;1.65;1.15;;;18.10;46.80;;;;;;4994533;28;20087;-65
2021/03/08 01:15:30;;;;;;;2.25;1.42;;;18.10;46.80;;;;;;4995145;28;21302;-65
2021/03/08 01:17:55;;;;;;;2.15;1.23;;;18.20;46.90;;;;;;4995503;28;20035;-65
2021/03/08 01:20:21;;;;;;;2.42;1.30;;;18.10;46.70;;;;;;4992691;28;20034;-64
2021/03/08 01:22:47;;;;;;;2.22;1.48;;;18.10;46.60;;;;;;4996576;28;20034;-65
2021/03/08 01:25:17;;;;;;;2.22;1.27;;;18.10;46.50;;;;;;4998196;28;20069;-64
2021/03/08 01:27:43;;;;;;;2.03;1.13;;;18.10;46.50;;;;;;4997530;28;20813;-65
2021/03/08 01:30:16;;;;;;;2.85;1.40;;;18.10;46.50;;;;;;4995576;28;20088;-65
2021/03/08 01:32:42;;;;;;;1.50;1.40;;;18.10;46.50;;;;;;4995259;28;20041;-65
2021/03/08 01:35:08;;;;;;;2.95;1.30;;;18.10;46.50;;;;;;4995445;28;20046;-65
2021/03/08 01:37:34;;;;;;;2.42;1.10;;;18.10;46.40;;;;;;4997250;28;20385;-65
2021/03/08 01:40:00;;;;;;;2.03;1.10;;;18.10;46.30;;;;;;4997612;28;20030;-65
2021/03/08 01:42:25;;;;;;;2.25;1.35;;;18.10;46.30;;;;;;4998573;28;20072;-65
2021/03/08 01:44:51;;;;;;;2.17;1.10;;;18.10;46.30;;;;;;5001863;28;20133;-65
2021/03/08 01:47:16;;;;;;;4.47;1.88;;;18.10;46.20;;;;;;4999191;28;20042;-65
2021/03/08 01:49:42;;;;;;;3.42;1.27;;;18.10;46.30;;;;;;5006140;23;20053;-71
2021/03/08 01:52:09;;;;;;;1.95;1.10;;;18.00;46.20;;;;;;4998535;28;20480;-71
2021/03/08 01:54:34;;;;;;;1.75;1.40;;;18.00;46.10;;;;;;5004467;28;20038;-71
2021/03/08 01:57:00;;;;;;;2.22;1.25;;;18.00;46.20;;;;;;5006794;28;20026;-71
2021/03/08 01:59:25;;;;;;;1.65;0.98;;;17.90;46.20;;;;;;5002911;28;20129;-70
2021/03/08 02:01:51;;;;;;;2.80;1.25;;;18.00;46.10;;;;;;5001521;28;20454;-70
2021/03/08 02:04:16;;;;;;;1.75;1.48;;;18.00;46.10;;;;;;5010221;22;20093;-61
2021/03/08 02:06:42;;;;;;;1.55;1.27;;;18.00;46.00;;;;;;4981184;28;20415;-60
2021/03/08 02:09:07;;;;;;;3.55;1.73;;;18.00;46.00;;;;;;4983952;28;20077;-59
2021/03/08 02:11:34;;;;;;;2.35;1.20;;;18.00;45.90;;;;;;4983897;28;20103;-61
2021/03/08 02:14:07;;;;;;;2.25;1.40;;;18.00;45.90;;;;;;4981616;28;20108;-64
2021/03/08 02:17:06;;;;;;;1.48;1.23;;;18.00;45.90;;;;;;4965583;28;20030;-63
2021/03/08 02:19:36;;;;;;;1.08;0.90;;;17.90;45.80;;;;;;4982592;28;21386;-59
2021/03/08 02:22:23;;;;;;;1.00;0.88;;;17.90;46.00;;;;;;4982416;28;20164;-56
2021/03/08 02:25:07;;;;;;;2.45;1.10;;;17.90;45.90;;;;;;5015932;28;20116;-58
2021/03/08 02:27:37;;;;;;;1.20;1.00;;;17.90;45.90;;;;;;5022009;28;21059;-55
2021/03/08 02:30:34;;;;;;;2.35;1.17;;;17.90;45.80;;;;;;5004792;28;20388;-61
2021/03/08 02:33:00;;;;;;;1.70;1.17;;;17.90;45.80;;;;;;5005728;28;20072;-60
2021/03/08 02:35:25;;;;;;;2.13;1.40;;;17.90;45.80;;;;;;5021042;28;20450;-62
2021/03/08 02:37:54;;;;;;;2.15;1.27;;;17.90;45.70;;;;;;5020333;28;20124;-62
2021/03/08 02:40:24;;;;;;;1.20;0.90;;;17.90;45.80;;;;;;5021283;28;20033;-63
2021/03/08 02:42:55;;;;;;;2.35;0.95;;;17.90;45.80;;;;;;5021112;28;20034;-57
2021/03/08 02:45:22;;;;;;;1.42;1.02;;;17.90;45.90;;;;;;5021370;28;20045;-64
2021/03/08 02:47:48;;;;;;;1.42;1.13;;;17.90;45.80;;;;;;5004910;28;20051;-60
2021/03/08 02:50:13;;;;;;;1.75;1.10;;;17.90;45.90;;;;;;5024654;28;20042;-58
2021/03/08 02:52:41;;;;;;;1.40;1.13;;;17.80;45.90;;;;;;5023448;28;20033;-60
2021/03/08 02:55:06;;;;;;;3.10;1.00;;;17.80;45.90;;;;;;5021700;28;20517;-59
2021/03/08 02:57:37;;;;;;;1.17;1.05;;;17.80;45.90;;;;;;5020667;28;20076;-63
2021/03/08 03:00:05;;;;;;;1.40;1.13;;;17.80;45.90;;;;;;5019538;28;20041;-60
2021/03/08 03:02:30;;;;;;;1.70;1.25;;;17.80;45.90;;;;;;5020453;28;20087;-60
2021/03/08 03:04:56;;;;;;;4.18;1.10;;;17.80;46.00;;;;;;5020354;28;20041;-64
2021/03/08 03:07:22;;;;;;;1.85;1.20;;;17.80;46.00;;;;;;5020563;28;20519;-63
2021/03/08 03:09:47;;;;;;;1.67;1.05;;;17.80;46.10;;;;;;5020714;28;20042;-57
2021/03/08 03:12:13;;;;;;;1.80;0.90;;;17.80;46.10;;;;;;5020360;28;20036;-60
2021/03/08 03:14:39;;;;;;;1.73;1.10;;;17.80;46.10;;;;;;5005183;28;20652;-65
2021/03/08 03:17:06;;;;;;;2.95;1.40;;;17.70;46.20;;;;;;5021255;28;20090;-60
2021/03/08 03:19:32;;;;;;;3.08;1.30;;;17.70;46.20;;;;;;5023037;28;20036;-60
2021/03/08 03:22:01;;;;;;;1.25;0.90;;;17.70;46.40;;;;;;5020757;28;20044;-56
2021/03/08 03:24:27;;;;;;;1.33;1.10;;;17.60;46.60;;;;;;5020517;28;20090;-63
2021/03/08 03:26:53;;;;;;;2.20;1.15;;;17.60;46.80;;;;;;5018917;28;20060;-59
2021/03/08 03:29:18;;;;;;;2.22;1.02;;;17.60;46.70;;;;;;5020428;28;20499;-62
2021/03/08 03:31:44;;;;;;;1.88;1.00;;;17.60;46.80;;;;;;5020272;28;20079;-64
2021/03/08 03:34:09;;;;;;;1.55;0.95;;;17.70;46.70;;;;;;5021319;28;20068;-67
2021/03/08 03:36:36;;;;;;;1.98;0.98;;;17.80;46.50;;;;;;5020447;28;20087;-68
2021/03/08 03:39:04;;;;;;;1.15;0.90;;;17.90;46.40;;;;;;5020538;28;20041;-60
2021/03/08 03:41:29;;;;;;;0.70;0.63;;;18.00;46.30;;;;;;5021511;28;20040;-63
2021/03/08 03:43:55;;;;;;;1.63;0.80;;;18.10;46.20;;;;;;5022090;28;20030;-59
2021/03/08 03:46:20;;;;;;;1.90;0.90;;;18.10;46.20;;;;;;5020125;28;20454;-59
2021/03/08 03:48:46;;;;;;;1.38;0.90;;;18.10;46.00;;;;;;5021971;28;20554;-59
2021/03/08 03:51:11;;;;;;;2.55;1.08;;;18.20;46.00;;;;;;5020363;28;20073;-56
2021/03/08 03:53:38;;;;;;;0.95;0.70;;;18.20;46.00;;;;;;5021432;28;20643;-54
2021/03/08 03:56:06;;;;;;;1.80;1.00;;;18.30;46.10;;;;;;5021154;28;20047;-64
2021/03/08 03:58:35;;;;;;;1.60;0.90;;;18.30;45.90;;;;;;5019982;28;20053;-67
2021/03/08 04:01:03;;;;;;;1.30;0.90;;;18.30;46.00;;;;;;5019990;28;20613;-57
2021/03/08 04:03:34;;;;;;;0.80;0.80;;;18.30;46.00;;;;;;5019820;28;20186;-57
2021/03/08 04:06:00;;;;;;;1.02;0.93;;;18.20;46.00;;;;;;5019903;28;20077;-57
2021/03/08 04:08:26;;;;;;;2.33;0.98;;;18.20;46.00;;;;;;5003112;28;20061;-60
2021/03/08 04:10:52;;;;;;;1.85;0.90;;;18.20;46.00;;;;;;5019763;28;20041;-57
2021/03/08 04:13:18;;;;;;;1.58;1.08;;;18.20;46.00;;;;;;5020019;28;20061;-54
2021/03/08 04:15:43;;;;;;;1.35;1.08;;;18.10;46.00;;;;;;5020062;28;20072;-56
2021/03/08 04:18:12;;;;;;;1.13;0.80;;;18.20;46.10;;;;;;5021346;28;20037;-60
2021/03/08 04:20:37;;;;;;;1.45;1.23;;;18.20;46.00;;;;;;5003483;28;20041;-56
2021/03/08 04:23:05;;;;;;;1.55;0.90;;;18.20;46.00;;;;;;5019980;28;20110;-64
2021/03/08 04:25:31;;;;;;;2.75;1.27;;;18.10;45.90;;;;;;5002883;28;20038;-58
2021/03/08 04:27:57;;;;;;;1.95;1.00;;;18.10;46.00;;;;;;5019504;28;20788;-61
2021/03/08 04:30:23;;;;;;;1.45;1.00;;;18.10;45.90;;;;;;5020114;28;20029;-62
2021/03/08 04:32:51;;;;;;;1.77;0.85;;;18.10;45.90;;;;;;5002953;28;20090;-55
2021/03/08 04:35:16;;;;;;;1.00;0.80;;;18.10;45.80;;;;;;5004617;28;20450;-60
2021/03/08 04:37:42;;;;;;;2.42;1.30;;;18.10;45.80;;;;;;5019437;28;20033;-61
2021/03/08 04:40:08;;;;;;;1.42;1.20;;;18.10;45.40;;;;;;5022539;28;20229;-60
2021/03/08 04:42:34;;;;;;;1.75;1.38;;;18.20;45.30;;;;;;5023543;28;20034;-63
2021/03/08 04:44:59;;;;;;;3.90;1.35;;;18.20;45.30;;;;;;5023902;28;20091;-66
2021/03/08 04:47:25;;;;;;;3.58;1.50;;;18.20;45.20;;;;;;5023011;28;20065;-62
2021/03/08 04:49:50;;;;;;;3.67;1.25;;;18.20;45.10;;;;;;5023993;28;20033;-56
2021/03/08 04:52:16;;;;;;;6.50;1.45;;;18.20;45.20;;;;;;5024282;28;20675;-61
2021/03/08 04:54:45;;;;;;;7.30;1.50;;;18.20;45.80;;;;;;5022963;28;20494;-61
2021/03/08 04:57:13;;;;;;;8.50;1.92;;;18.10;45.20;;;;;;5021218;28;20368;-57
2021/03/08 04:59:38;;;;;;;11.38;2.00;;;18.10;45.40;;;;;;5020792;28;20578;-64
2021/03/08 05:02:04;;;;;;;12.68;3.47;;;18.10;45.50;;;;;;5021980;28;20070;-59
2021/03/08 05:04:29;;;;;;;6.53;1.88;;;18.10;45.60;;;;;;5023196;28;20036;-56
2021/03/08 05:06:55;;;;;;;5.10;1.80;;;18.10;45.60;;;;;;4990668;28;20637;-58
2021/03/08 05:09:20;;;;;;;4.75;1.98;;;18.00;45.50;;;;;;5023255;28;20037;-57
2021/03/08 05:11:46;;;;;;;9.60;2.17;;;18.00;45.40;;;;;;5007214;28;20037;-62
2021/03/08 05:14:15;;;;;;;5.90;1.23;;;18.00;45.40;;;;;;5024324;28;20406;-56
2021/03/08 05:16:43;;;;;;;4.68;1.35;;;18.00;45.40;;;;;;5006234;28;20049;-65
2021/03/08 05:19:09;;;;;;;5.30;1.60;;;18.00;45.30;;;;;;5023609;28;20037;-57
2021/03/08 05:21:34;;;;;;;6.25;1.50;;;18.00;45.40;;;;;;5006705;28;20149;-61
2021/03/08 05:24:00;;;;;;;3.78;1.70;;;17.90;45.40;;;;;;5023765;28;20037;-57
2021/03/08 05:26:26;;;;;;;5.13;1.48;;;17.90;45.40;;;;;;5022802;28;20100;-56
2021/03/08 05:28:53;;;;;;;3.03;1.10;;;17.90;45.40;;;;;;5024952;28;20068;-61
2021/03/08 05:31:19;;;;;;;5.85;1.77;;;17.90;45.40;;;;;;5006780;28;20048;-65
2021/03/08 05:33:45;;;;;;;3.42;1.20;;;17.90;45.40;;;;;;5007468;28;20048;-64
2021/03/08 05:36:11;;;;;;;5.43;1.40;;;17.80;45.30;;;;;;5023563;28;20100;-64
2021/03/08 05:38:36;;;;;;;7.85;1.98;;;17.90;45.40;;;;;;4990827;28;20163;-64
2021/03/08 05:41:11;;;;;;;5.03;1.80;;;17.80;45.40;;;;;;4990176;28;20082;-59
2021/03/08 05:43:36;;;;;;;5.65;1.30;;;17.80;45.40;;;;;;5008080;28;20040;-60
2021/03/08 05:46:34;;;;;;;3.28;1.35;;;17.80;45.40;;;;;;5023162;28;20696;-66
2021/03/08 05:49:36;;;;;;;6.60;1.95;;;17.80;45.40;;;;;;5023457;28;20030;-61
2021/03/08 05:52:24;;;;;;;6.00;2.28;;;17.80;45.40;;;;;;5023399;28;20049;-62
2021/03/08 05:55:25;;;;;;;6.68;1.63;;;17.80;45.50;;;;;;5024221;28;20570;-65
2021/03/08 05:58:18;;;;;;;1.92;1.25;;;17.80;45.50;;;;;;5007370;28;20030;-61
2021/03/08 06:01:14;;;;;;;3.42;1.30;;;17.70;45.50;;;;;;5023959;28;20037;-60
2021/03/08 06:04:07;;;;;;;3.45;1.33;;;17.70;45.50;;;;;;5023268;28;20029;-61
2021/03/08 06:06:48;;;;;;;3.15;1.33;;;17.70;45.50;;;;;;5023348;28;20122;-62
2021/03/08 06:09:25;;;;;;;3.05;1.45;;;17.70;45.60;;;;;;5024099;28;20083;-65
2021/03/08 06:12:06;;;;;;;1.33;0.95;;;17.70;45.60;;;;;;5023868;28;20094;-63
2021/03/08 06:14:35;;;;;;;3.20;1.42;;;17.70;45.70;;;;;;5024479;28;20045;-61
2021/03/08 06:17:01;;;;;;;4.60;1.52;;;17.70;45.80;;;;;;5023983;28;20025;-59
2021/03/08 06:19:26;;;;;;;5.35;1.52;;;17.70;45.90;;;;;;5007702;28;20034;-57
2021/03/08 06:21:52;;;;;;;2.40;1.38;;;17.70;46.10;;;;;;5024130;28;20509;-57
2021/03/08 06:24:17;;;;;;;5.07;1.40;;;17.60;46.30;;;;;;5022815;28;20102;-60
2021/03/08 06:26:44;;;;;;;1.85;1.10;;;17.60;46.40;;;;;;5021702;28;20033;-60
2021/03/08 06:29:09;;;;;;;3.58;1.40;;;17.60;46.30;;;;;;5005839;28;20083;-56
2021/03/08 06:31:36;;;;;;;1.25;1.02;;;17.70;46.20;;;;;;5021794;28;20493;-57
2021/03/08 06:34:01;;;;;;;2.65;1.15;;;17.80;46.00;;;;;;5023640;28;20120;-57
2021/03/08 06:36:27;;;;;;;4.30;1.30;;;17.90;45.90;;;;;;5022540;28;20499;-60
2021/03/08 06:38:52;;;;;;;6.45;1.25;;;18.00;45.90;;;;;;5005643;28;20037;-62
2021/03/08 06:41:18;;;;;;;2.10;0.80;;;18.00;46.00;;;;;;5005390;28;20402;-60
2021/03/08 06:43:43;;;;;;;1.63;1.08;;;18.00;46.00;;;;;;5023919;28;20598;-59
2021/03/08 06:46:09;;;;;;;4.18;1.20;;;18.00;46.10;;;;;;5023583;28;20099;-62
2021/03/08 06:48:35;;;;;;;4.13;1.35;;;18.00;45.90;;;;;;5020831;28;20453;-57
2021/03/08 06:51:16;;;;;;;2.17;1.05;;;18.10;45.70;;;;;;5023434;28;20192;-55
2021/03/08 06:53:42;;;;;;;2.95;1.05;;;18.20;45.70;;;;;;5024288;28;20498;-56
2021/03/08 06:56:23;;;;;;;2.60;1.10;;;18.20;45.60;;;;;;5023802;28;20037;-61
2021/03/08 06:59:13;;;;;;;1.50;1.10;;;18.10;45.60;;;;;;5022686;28;20034;-62
2021/03/08 07:01:39;;;;;;;3.45;1.10;;;18.10;45.70;;;;;;5022787;28;20543;-61
2021/03/08 07:04:16;;;;;;;2.50;1.30;;;18.10;45.90;;;;;;5024862;28;20037;-65
2021/03/08 07:06:42;;;;;;;4.10;1.50;;;18.00;46.00;;;;;;5023669;28;20021;-58
2021/03/08 07:09:11;;;;;;;3.42;1.63;;;18.00;46.20;;;;;;5022808;28;20399;-60
2021/03/08 07:11:37;;;;;;;4.93;1.52;;;17.90;46.30;;;;;;5024019;28;20045;-56
2021/03/08 07:14:17;;;;;;;4.05;1.60;;;17.90;46.40;;;;;;5022959;28;20602;-56
2021/03/08 07:16:42;;;;;;;4.32;1.60;;;17.90;46.40;;;;;;5022736;28;20103;-62
2021/03/08 07:19:08;;;;;;;1.65;1.48;;;17.90;46.30;;;;;;5024434;28;20495;-59
2021/03/08 07:21:34;;;;;;;2.35;1.80;;;17.90;46.40;;;;;;5023607;28;20060;-65
2021/03/08 07:24:12;;;;;;;3.45;1.63;;;17.90;46.60;;;;;;5022651;28;20131;-56
2021/03/08 07:26:51;;;;;;;3.83;2.03;;;17.90;46.50;;;;;;5022011;28;20030;-62
2021/03/08 07:29:17;;;;;;;5.97;1.92;;;17.90;46.30;;;;;;5022148;28;20087;-60
2021/03/08 07:31:47;;;;;;;3.58;1.67;;;18.00;46.30;;;;;;5022046;28;20037;-58
2021/03/08 07:34:13;;;;;;;1.98;1.50;;;18.00;46.20;;;;;;5006219;28;20025;-58
2021/03/08 07:36:42;;;;;;;1.88;1.60;;;18.00;46.10;;;;;;5019324;28;20052;-58
2021/03/08 07:39:09;;;;;;;2.45;1.77;;;18.00;46.10;;;;;;5022540;28;20029;-54
2021/03/08 07:41:34;;;;;;;3.30;1.70;;;18.00;46.00;;;;;;5023226;28;20108;-62
2021/03/08 07:44:07;;;;;;;2.70;1.98;;;18.00;46.10;;;;;;5022027;28;20491;-56
2021/03/08 07:46:36;;;;;;;4.55;2.00;;;18.00;46.10;;;;;;5004589;28;20049;-60
2021/03/08 07:49:04;;;;;;;2.70;1.80;;;18.00;46.10;;;;;;5021599;28;20034;-58
2021/03/08 07:51:29;;;;;;;3.80;1.83;;;17.90;46.30;;;;;;5021005;28;20033;-66
2021/03/08 07:54:01;;;;;;;3.60;2.00;;;17.90;46.40;;;;;;5000060;28;20029;-58
2021/03/08 07:56:27;;;;;;;3.58;2.00;;;17.90;46.60;;;;;;5018150;28;20026;-63
2021/03/08 07:58:53;;;;;;;4.85;2.40;;;17.90;46.60;;;;;;5021475;28;20053;-56
2021/03/08 08:01:18;;;;;;;5.35;2.30;;;17.90;46.70;;;;;;5022539;28;20113;-55
2021/03/08 08:03:44;;;;;;;3.63;2.28;;;17.90;46.70;;;;;;5021387;28;20112;-58
2021/03/08 08:06:10;;;;;;;3.90;1.58;;;17.80;46.70;;;;;;5022608;28;20120;-65
2021/03/08 08:08:46;;;;;;;3.50;2.45;;;17.90;46.70;;;;;;5021513;28;20036;-64
2021/03/08 08:11:12;;;;;;;3.67;2.25;;;17.80;46.70;;;;;;5021805;28;20398;-62
2021/03/08 08:13:43;;;;;;;2.78;2.03;;;17.80;46.70;;;;;;5020951;28;20030;-60
2021/03/08 08:16:10;;;;;;;2.40;1.77;;;17.80;46.70;;;;;;5022092;28;20033;-59
2021/03/08 08:18:41;;;;;;;4.82;2.00;;;17.80;46.70;;;;;;5022286;28;20034;-59
2021/03/08 08:21:17;;;;;;;2.33;1.92;;;17.80;46.70;;;;;;5021201;28;20096;-58
2021/03/08 08:23:47;;;;;;;2.38;2.17;;;17.80;46.70;;;;;;5021232;28;20116;-65
2021/03/08 08:26:18;;;;;;;2.90;1.83;;;17.70;46.70;;;;;;5021859;28;20111;-65
2021/03/08 08:28:45;;;;;;;3.85;2.38;;;17.70;46.70;;;;;;5004501;28;20045;-65
2021/03/08 08:31:10;;;;;;;4.50;2.22;;;17.70;46.70;;;;;;5020932;28;20099;-68
2021/03/08 08:33:36;;;;;;;2.58;2.00;;;17.70;46.80;;;;;;5005336;28;20026;-64
2021/03/08 08:36:15;;;;;;;3.47;2.03;;;17.70;46.70;;;;;;5022899;28;20045;-57
2021/03/08 08:38:42;;;;;;;1.65;1.40;;;17.70;46.80;;;;;;5022970;28;20041;-58
2021/03/08 08:41:27;;;;;;;4.38;2.05;;;17.70;46.80;;;;;;5022717;28;20026;-56
2021/03/08 08:44:17;;;;;;;5.38;1.80;;;17.70;46.80;;;;;;5022899;28;20036;-63
2021/03/08 08:46:46;;;;;;;3.20;2.10;;;17.70;47.50;;;;;;5015952;28;20026;-63
2021/03/08 08:49:16;;;;;;;4.40;2.38;;;17.70;46.80;;;;;;5002014;28;20047;-60
2021/03/08 08:51:47;;;;;;;2.30;1.95;;;17.70;46.80;;;;;;5017168;28;20041;-61
2021/03/08 08:54:28;;;;;;;3.13;2.20;;;17.70;46.90;;;;;;5003334;28;20567;-57
2021/03/08 08:57:00;;;;;;;2.90;2.10;;;17.60;46.80;;;;;;5002195;28;20053;-59
2021/03/08 08:59:26;;;;;;;2.83;2.45;;;17.60;46.90;;;;;;5003161;28;20030;-65
2021/03/08 09:02:10;;;;;;;4.57;1.80;;;17.60;47.10;;;;;;5002795;28;20041;-64
2021/03/08 09:04:36;;;;;;;2.53;1.85;;;17.70;47.20;;;;;;5002639;28;20048;-64
2021/03/08 09:07:03;;;;;;;2.47;2.05;;;17.60;47.30;;;;;;5002291;28;20109;-64
2021/03/08 09:09:31;;;;;;;2.70;1.83;;;17.70;47.30;;;;;;5017967;28;20022;-60
2021/03/08 09:12:00;;;;;;;3.80;2.08;;;17.60;47.30;;;;;;5002428;28;20042;-58
2021/03/08 09:14:30;;;;;;;3.75;2.22;;;17.60;47.30;;;;;;5001591;28;20034;-64
2021/03/08 09:17:20;;;;;;;3.58;2.42;;;17.60;47.30;;;;;;5001910;28;20034;-60
2021/03/08 09:20:06;;;;;;;5.47;2.10;;;17.60;47.30;;;;;;5003684;28;20076;-61
2021/03/08 09:22:49;;;;;;;2.28;1.77;;;17.70;47.40;;;;;;4989909;28;20030;-55
2021/03/08 09:25:28;;;;;;;2.38;1.65;;;17.70;47.30;;;;;;5002506;28;20038;-59
2021/03/08 09:28:10;;;;;;;3.75;2.40;;;17.80;47.20;;;;;;5006736;28;20030;-62
2021/03/08 09:30:46;;;;;;;3.58;1.90;;;17.90;47.10;;;;;;5007585;28;20585;-60
2021/03/08 09:33:13;;;;;;;4.10;2.33;;;18.00;47.00;;;;;;5005453;28;20042;-56
2021/03/08 09:35:43;;;;;;;3.15;2.20;;;18.00;46.80;;;;;;5005007;28;20033;-56
2021/03/08 09:38:17;;;;;;;4.93;2.35;;;18.00;46.70;;;;;;5003746;28;20040;-58
2021/03/08 09:40:47;;;;;;;2.80;1.90;;;18.00;46.70;;;;;;5021818;28;20491;-63
2021/03/08 09:43:32;;;;;;;2.78;2.05;;;18.10;46.80;;;;;;5006285;28;20483;-63
2021/03/08 09:46:07;;;;;;;3.93;2.00;;;18.00;46.80;;;;;;4987056;28;20281;-62
2021/03/08 09:48:37;;;;;;;3.25;1.70;;;18.10;46.80;;;;;;5004047;28;20261;-58
2021/03/08 09:51:13;;;;;;;3.15;2.15;;;18.10;46.70;;;;;;5003463;28;20073;-58
2021/03/08 09:53:52;;;;;;;7.30;2.50;;;18.10;46.70;;;;;;5004557;28;20470;-63
2021/03/08 09:56:19;;;;;;;5.72;2.20;;;18.10;46.60;;;;;;5002976;28;20030;-65
2021/03/08 09:58:44;;;;;;;5.18;2.65;;;18.10;46.60;;;;;;5004656;28;20030;-64
2021/03/08 10:01:11;;;;;;;8.43;2.50;;;18.10;46.70;;;;;;5004050;28;20030;-58
2021/03/08 10:03:37;;;;;;;5.80;2.83;;;18.00;47.00;;;;;;5004854;28;20444;-61
2021/03/08 10:06:02;;;;;;;9.75;2.75;;;17.90;47.10;;;;;;5003780;28;20068;-66
2021/03/08 10:08:31;;;;;;;8.75;2.33;;;17.90;47.10;;;;;;5003362;28;20030;-57
2021/03/08 10:10:56;;;;;;;6.70;2.97;;;17.80;47.10;;;;;;5005290;28;20034;-62
2021/03/08 10:13:22;;;;;;;13.82;3.03;;;17.90;47.20;;;;;;5004879;28;20044;-54
2021/03/08 10:15:49;;;;;;;10.85;2.67;;;17.80;47.10;;;;;;5004118;28;20070;-56
2021/03/08 10:18:21;;;;;;;9.35;2.97;;;17.90;47.10;;;;;;5002482;28;20033;-62
2021/03/08 10:21:00;;;;;;;5.13;2.80;;;17.90;46.90;;;;;;5004917;28;20812;-53
2021/03/08 10:23:30;;;;;;;6.47;2.50;;;18.00;46.80;;;;;;5004410;28;20042;-62
2021/03/08 10:26:06;;;;;;;10.93;2.55;;;18.00;46.60;;;;;;5003563;28;20026;-65
2021/03/08 10:28:43;;;;;;;7.28;2.80;;;18.00;46.50;;;;;;5002391;28;20065;-58
2021/03/08 10:31:17;;;;;;;5.00;1.92;;;18.00;46.50;;;;;;5004166;28;20030;-59
2021/03/08 10:33:44;;;;;;;8.63;3.17;;;18.00;46.50;;;;;;5004089;28;20054;-56
2021/03/08 10:36:09;;;;;;;8.30;2.97;;;18.00;46.50;;;;;;5001973;28;20045;-57
2021/03/08 10:38:35;;;;;;;7.57;2.63;;;18.00;46.40;;;;;;5002879;28;20100;-53
2021/03/08 10:41:01;;;;;;;7.10;2.25;;;18.00;46.50;;;;;;5004466;28;20030;-61
2021/03/08 10:43:27;;;;;;;4.28;2.70;;;17.90;46.50;;;;;;4986700;28;20033;-59
2021/03/08 10:45:54;;;;;;;3.50;2.30;;;17.90;46.50;;;;;;5002888;28;20029;-57
2021/03/08 10:48:20;;;;;;;8.48;3.33;;;17.90;46.60;;;;;;4985784;28;20034;-61
2021/03/08 10:50:50;;;;;;;5.43;2.38;;;17.90;46.70;;;;;;5003920;28;20801;-65
2021/03/08 10:53:17;;;;;;;6.88;2.90;;;17.80;46.90;;;;;;5003980;28;20058;-59
2021/03/08 10:55:43;;;;;;;5.28;2.42;;;17.80;47.10;;;;;;5003360;28;20545;-66
2021/03/08 10:58:08;;;;;;;6.40;2.72;;;17.80;47.10;;;;;;5002678;28;20034;-62
2021/03/08 11:00:34;;;;;;;2.90;2.30;;;17.70;47.20;;;;;;5002573;28;20492;-61
2021/03/08 11:03:00;;;;;;;4.15;1.90;;;17.70;47.40;;;;;;5002128;28;20101;-62
2021/03/08 11:05:26;;;;;;;5.03;2.10;;;17.70;47.50;;;;;;5003654;28;20050;-57
2021/03/08 11:07:52;;;;;;;4.57;2.38;;;17.70;47.50;;;;;;5003072;28;20026;-59
2021/03/08 11:10:30;;;;;;;6.13;2.80;;;17.70;47.60;;;;;;5002482;28;20126;-60
2021/03/08 11:13:00;;;;;;;7.53;2.72;;;17.70;47.60;;;;;;4986368;28;20022;-63
2021/03/08 11:15:26;;;;;;;4.40;2.63;;;17.70;47.60;;;;;;5002534;28;20042;-63
2021/03/08 11:17:51;;;;;;;2.80;2.17;;;17.60;47.70;;;;;;5000818;28;20033;-56
2021/03/08 11:20:19;;;;;;;6.15;2.30;;;17.60;47.60;;;;;;5001357;28;20113;-56
2021/03/08 11:23:00;;;;;;;6.00;2.33;;;17.60;47.70;;;;;;5003107;28;20143;-59
2021/03/08 11:25:30;;;;;;;5.20;1.98;;;17.60;47.70;;;;;;5002953;28;20100;-59
2021/03/08 11:27:57;;;;;;;4.85;2.40;;;17.60;47.80;;;;;;5002783;28;20030;-66
2021/03/08 11:30:26;;;;;;;4.22;2.00;;;17.60;47.80;;;;;;4985493;28;20042;-60
2021/03/08 11:32:56;;;;;;;3.00;2.30;;;17.60;47.70;;;;;;5001827;28;20026;-59
2021/03/08 11:35:25;;;;;;;3.00;1.92;;;17.60;47.70;;;;;;5002921;28;20026;-56
2021/03/08 11:37:52;;;;;;;4.95;2.30;;;17.60;47.80;;;;;;5001398;28;20269;-55
2021/03/08 11:40:22;;;;;;;4.63;2.03;;;17.60;47.80;;;;;;4985557;28;20185;-60
2021/03/08 11:42:47;;;;;;;5.72;2.00;;;17.60;47.80;;;;;;5001376;28;20044;-57
2021/03/08 11:45:13;;;;;;;3.92;2.17;;;17.60;47.80;;;;;;5002262;28;20022;-65
2021/03/08 11:47:39;;;;;;;6.05;3.00;;;17.60;47.90;;;;;;5016876;28;20046;-54
2021/03/08 11:50:05;;;;;;;3.88;2.30;;;17.60;48.50;;;;;;5002072;28;20058;-58
2021/03/08 11:52:30;;;;;;;4.43;1.92;;;17.60;49.20;;;;;;5002837;28;20030;-54
2021/03/08 11:54:56;;;;;;;4.28;2.30;;;17.60;49.60;;;;;;5001776;28;20545;-56
2021/03/08 11:57:22;;;;;;;7.25;2.47;;;17.60;49.80;;;;;;5001808;28;20022;-60
2021/03/08 11:59:47;;;;;;;7.65;2.58;;;17.60;49.80;;;;;;5002576;28;20018;-65
2021/03/08 12:02:13;;;;;;;5.30;2.38;;;17.60;49.90;;;;;;5001679;28;20026;-62
2021/03/08 12:04:38;;;;;;;6.25;3.15;;;17.60;49.80;;;;;;5002758;28;20451;-57
2021/03/08 12:07:04;;;;;;;4.45;2.45;;;17.60;49.70;;;;;;5003176;28;20030;-63
2021/03/08 12:09:33;;;;;;;4.13;2.35;;;17.60;49.50;;;;;;5002584;28;20113;-60
2021/03/08 12:11:58;;;;;;;6.32;2.70;;;17.60;49.50;;;;;;5017245;28;20030;-56
2021/03/08 12:14:24;;;;;;;2.50;2.08;;;17.60;49.30;;;;;;5002229;28;20022;-56
2021/03/08 12:16:49;;;;;;;2.72;2.25;;;17.60;49.30;;;;;;5002217;28;20096;-56
2021/03/08 12:19:16;;;;;;;4.50;2.17;;;17.60;49.20;;;;;;5002177;28;20388;-59
2021/03/08 12:21:44;;;;;;;3.55;2.05;;;17.60;49.10;;;;;;5002504;28;20030;-56
2021/03/08 12:24:09;;;;;;;4.50;2.50;;;17.60;49.00;;;;;;5001074;28;20022;-55
2021/03/08 12:26:35;;;;;;;5.10;2.25;;;17.60;49.00;;;;;;5001952;28;20046;-59
2021/03/08 12:29:00;;;;;;;5.57;2.50;;;17.60;48.90;;;;;;5002593;28;20089;-60
2021/03/08 12:31:26;;;;;;;4.00;2.40;;;17.60;48.90;;;;;;5002729;28;20653;-56
2021/03/08 12:33:51;;;;;;;4.85;2.10;;;17.60;48.90;;;;;;4985026;28;20038;-61
2021/03/08 12:36:17;;;;;;;5.60;2.45;;;17.60;48.80;;;;;;5001909;28;20056;-63
2021/03/08 12:38:43;;;;;;;3.30;2.28;;;17.60;49.40;;;;;;5002026;28;20429;-58
2021/03/08 12:41:08;;;;;;;6.45;2.22;;;17.60;48.60;;;;;;5001733;28;20121;-57
2021/03/08 12:43:34;;;;;;;3.08;2.15;;;17.60;48.60;;;;;;5001554;28;20030;-58
2021/03/08 12:45:59;;;;;;;14.73;2.22;;;17.60;48.60;;;;;;5000870;28;20060;-59
2021/03/08 12:48:25;;;;;;;3.88;1.95;;;17.60;49.30;;;;;;5001512;28;20617;-61
2021/03/08 12:50:50;;;;;;;2.75;2.05;;;17.60;49.80;;;;;;5002786;28;20088;-60
2021/03/08 12:53:16;;;;;;;4.18;1.73;;;17.50;49.70;;;;;;5000574;28;20026;-64